La Salle, Minnesota
Current Conditions -  °F | °C
As of 8:14 AM on Wednesday 26 Nov 2014 (Local Time) from KJYG Reporting Station
Light Snow Light Snow  
Wind Chill: 15°   Ceiling: 800
Heat Index: 27°   Visibility: 1.5mi
Dew Point: 25°   Wind: 14mph
Humidity: 93%   Direction: 10°N
Pressure: 30.05"   Gusts: NA
Location:  44.07°N, 94.57°W
Report Text: KJYG 261414Z AUTO 01012KT 1 1/2SM -SN BKN008 OVC019 M03/M04 A3005 RMK AO2
Loading
Personal Weather Stations






























Interactive Weather Map New forecast layout! Learn more

10-Day Weather Forecast

Advertisements
Track Severe Weather on mobile